createdAt,value
2019-05-18T00:00:40.838Z,99.90
2019-05-18T00:03:09.888Z,99.90
2019-05-18T00:05:38.777Z,99.90
2019-05-18T00:08:07.970Z,99.90
2019-05-18T00:10:36.955Z,99.90
2019-05-18T00:13:05.918Z,99.90
2019-05-18T00:15:34.988Z,99.90
2019-05-18T00:18:03.954Z,99.90
2019-05-18T00:20:32.851Z,99.90
2019-05-18T00:23:01.728Z,99.90
2019-05-18T00:25:30.673Z,99.90
2019-05-18T00:27:59.653Z,99.90
2019-05-18T00:30:28.586Z,99.90
2019-05-18T00:32:57.711Z,99.90
2019-05-18T00:35:26.632Z,99.90
2019-05-18T00:37:55.422Z,99.90
2019-05-18T00:40:24.361Z,99.90
2019-05-18T00:42:53.267Z,99.90
2019-05-18T00:45:23.122Z,99.90
2019-05-18T00:47:52.036Z,99.90
2019-05-18T00:50:21.008Z,99.90
2019-05-18T00:52:49.898Z,99.90
2019-05-18T00:55:18.819Z,99.90
2019-05-18T00:57:47.747Z,99.90
2019-05-18T01:00:16.872Z,99.90
2019-05-18T01:02:45.700Z,99.90
2019-05-18T01:05:15.050Z,99.90
2019-05-18T01:07:43.866Z,99.90
2019-05-18T01:10:13.969Z,99.90
2019-05-18T01:12:42.797Z,99.90
2019-05-18T01:15:12.256Z,99.90
2019-05-18T01:17:55.105Z,99.90
2019-05-18T01:20:12.417Z,99.90
2019-05-18T01:22:41.217Z,99.90
2019-05-18T01:25:10.281Z,99.90
2019-05-18T01:27:39.321Z,99.90
2019-05-18T01:30:09.837Z,99.90
2019-05-18T01:32:38.694Z,99.90
2019-05-18T01:35:07.924Z,99.90
2019-05-18T01:37:36.867Z,99.90
2019-05-18T01:40:06.612Z,99.90
2019-05-18T01:42:35.479Z,99.90
2019-05-18T01:45:16.387Z,99.90
2019-05-18T01:47:35.684Z,99.90
2019-05-18T01:50:04.937Z,99.90
2019-05-18T01:52:33.813Z,99.90
2019-05-18T01:55:03.099Z,99.90
2019-05-18T01:57:31.909Z,99.90
2019-05-18T02:00:00.733Z,99.90
2019-05-18T02:02:29.605Z,99.90
2019-05-18T02:04:58.471Z,99.90
2019-05-18T02:07:27.425Z,99.90
2019-05-18T02:09:56.246Z,99.90
2019-05-18T02:12:25.188Z,99.90
2019-05-18T02:14:54.035Z,99.90
2019-05-18T02:17:22.879Z,99.90
2019-05-18T02:19:51.711Z,99.90
2019-05-18T02:22:20.614Z,99.90
2019-05-18T02:24:49.567Z,99.90
2019-05-18T02:27:18.445Z,99.90
2019-05-18T02:29:47.249Z,99.90
2019-05-18T02:32:16.102Z,99.90
2019-05-18T02:34:45.078Z,99.90
2019-05-18T02:37:14.023Z,99.90
2019-05-18T02:39:43.002Z,99.90
2019-05-18T02:42:11.929Z,99.90
2019-05-18T02:44:40.939Z,99.90
2019-05-18T02:47:09.827Z,99.90
2019-05-18T02:49:38.742Z,99.90
2019-05-18T02:52:07.629Z,99.90
2019-05-18T02:54:36.530Z,99.90
2019-05-18T02:57:05.452Z,99.90
2019-05-18T02:59:34.281Z,99.90
2019-05-18T03:02:03.308Z,99.90
2019-05-18T03:04:32.233Z,99.90
2019-05-18T03:07:01.326Z,99.90
2019-05-18T03:09:30.384Z,99.90
2019-05-18T03:11:59.452Z,99.90
2019-05-18T03:14:28.462Z,99.90
2019-05-18T03:16:57.359Z,99.90
2019-05-18T03:19:26.297Z,99.90
2019-05-18T03:21:55.905Z,99.90
2019-05-18T03:24:24.683Z,99.90
2019-05-18T03:26:53.707Z,99.90
2019-05-18T03:29:22.672Z,99.90
2019-05-18T03:31:51.605Z,99.90
2019-05-18T03:34:20.555Z,99.90
2019-05-18T03:36:49.606Z,99.90
2019-05-18T03:39:18.580Z,99.90
2019-05-18T03:41:47.521Z,99.90
2019-05-18T03:44:16.453Z,99.90
2019-05-18T03:46:45.342Z,99.90
2019-05-18T03:49:26.330Z,99.90
2019-05-18T03:51:44.899Z,99.90
2019-05-18T03:54:13.727Z,99.90
2019-05-18T03:56:42.539Z,99.90
2019-05-18T03:59:11.529Z,99.90
2019-05-18T04:01:40.441Z,99.90
2019-05-18T04:04:09.449Z,99.90
2019-05-18T04:06:38.343Z,99.90
2019-05-18T04:09:07.403Z,99.90
2019-05-18T04:11:36.187Z,99.90
2019-05-18T04:14:08.109Z,99.90
2019-05-18T04:16:35.724Z,99.90
2019-05-18T04:19:04.614Z,99.90
2019-05-18T04:21:33.395Z,99.90
2019-05-18T04:24:02.242Z,99.90
2019-05-18T04:26:31.103Z,99.90
2019-05-18T04:28:59.943Z,99.90
2019-05-18T04:31:32.174Z,99.90
2019-05-18T04:33:59.302Z,99.90
2019-05-18T04:36:28.228Z,99.90
2019-05-18T04:38:57.533Z,99.90
2019-05-18T08:45:27.720Z,94.10
2019-05-18T08:54:05.525Z,90.40
2019-05-18T08:56:47.018Z,87.40
2019-05-18T08:59:28.179Z,85.70
2019-05-18T09:02:09.028Z,84.70
2019-05-18T09:04:50.448Z,83.90
2019-05-18T09:07:31.567Z,82.90
2019-05-18T09:10:12.222Z,81.50
2019-05-18T09:12:53.063Z,81.30
2019-05-18T09:15:34.087Z,78.80
2019-05-18T09:18:15.408Z,79.90
2019-05-18T09:20:56.551Z,89.90
2019-05-18T09:23:59.747Z,83.90
2019-05-18T09:29:16.451Z,78.80
2019-05-18T09:37:40.453Z,82.20
2019-05-18T09:43:16.259Z,73.70
2019-05-18T09:46:04.531Z,77.80
2019-05-18T09:48:52.707Z,79.20
2019-05-18T09:51:40.952Z,76.00
2019-05-18T09:54:29.199Z,80.40
2019-05-18T10:00:05.549Z,66.80
2019-05-18T10:02:46.505Z,70.80
2019-05-18T10:05:15.698Z,66.00
2019-05-18T10:10:13.838Z,71.80
2019-05-18T10:12:43.104Z,72.10
2019-05-18T10:15:15.463Z,69.40
2019-05-18T10:17:45.027Z,65.20
2019-05-18T10:20:15.244Z,68.10
2019-05-18T10:22:55.290Z,68.70
2019-05-18T10:25:17.562Z,67.80
2019-05-18T10:27:46.624Z,61.90
2019-05-18T10:30:16.248Z,62.80
2019-05-18T10:32:48.415Z,62.50
2019-05-18T10:35:21.890Z,61.70
2019-05-18T10:37:51.189Z,60.20
2019-05-18T10:40:21.423Z,60.00
2019-05-18T10:42:52.406Z,58.80
2019-05-18T10:45:21.787Z,62.70
2019-05-18T10:47:53.856Z,61.30
2019-05-18T10:50:31.280Z,57.90
2019-05-18T10:53:00.820Z,58.40
2019-05-18T10:55:30.062Z,58.80
2019-05-18T10:57:59.262Z,58.50
2019-05-18T11:00:30.076Z,58.50
2019-05-18T11:03:11.667Z,58.30
2019-05-18T11:05:53.230Z,57.90
2019-05-18T11:08:23.658Z,57.30
2019-05-18T11:11:00.622Z,58.00
2019-05-18T11:13:34.874Z,58.10
2019-05-18T11:16:04.252Z,58.50
2019-05-18T11:21:02.406Z,57.10
2019-05-18T11:23:43.328Z,56.80
2019-05-18T11:26:05.753Z,56.50
2019-05-18T11:28:35.793Z,57.40
2019-05-18T11:31:05.360Z,56.90
2019-05-18T11:33:35.090Z,55.00
2019-05-18T11:36:04.473Z,54.20
2019-05-18T11:38:35.231Z,54.50
2019-05-18T11:41:07.299Z,54.70
2019-05-18T11:43:36.985Z,55.00
2019-05-18T11:46:06.261Z,54.50
2019-05-18T11:48:36.002Z,54.90
2019-05-18T11:51:06.033Z,54.00
2019-05-18T11:53:35.343Z,54.50
2019-05-18T11:56:04.919Z,53.50
2019-05-18T11:58:34.165Z,54.50
2019-05-18T12:01:03.960Z,54.10
2019-05-18T12:03:33.255Z,53.20
2019-05-18T12:06:03.212Z,52.40
2019-05-18T12:08:33.173Z,52.70
2019-05-18T12:11:03.765Z,53.30
2019-05-18T12:13:33.995Z,54.00
2019-05-18T12:16:04.110Z,52.80
2019-05-18T12:18:33.801Z,51.90
2019-05-18T12:21:03.137Z,51.30
2019-05-18T12:23:32.678Z,51.20
2019-05-18T12:26:02.265Z,50.70
2019-05-18T12:28:33.776Z,51.40
2019-05-18T12:31:03.186Z,50.60
2019-05-18T12:33:32.884Z,51.20
2019-05-18T12:36:02.318Z,52.10
2019-05-18T12:38:31.552Z,51.80
2019-05-18T12:41:03.049Z,51.40
2019-05-18T12:43:32.429Z,51.30
2019-05-18T12:46:01.573Z,51.50
2019-05-18T12:48:34.186Z,52.10
2019-05-18T12:51:06.919Z,52.60
2019-05-18T12:53:36.420Z,50.30
2019-05-18T12:56:05.571Z,49.90
2019-05-18T12:58:37.628Z,50.90
2019-05-18T13:01:09.345Z,50.00
2019-05-18T13:03:51.108Z,50.20
2019-05-18T13:06:21.866Z,49.90
2019-05-18T13:08:52.118Z,49.10
2019-05-18T13:11:24.534Z,50.00
2019-05-18T13:13:54.164Z,49.10
2019-05-18T13:16:23.181Z,49.40
2019-05-18T13:18:52.374Z,49.60
2019-05-18T13:21:21.451Z,48.90
2019-05-18T13:23:53.934Z,50.00
2019-05-18T13:26:26.021Z,47.50
2019-05-18T13:28:56.041Z,48.70
2019-05-18T13:31:26.833Z,47.30
2019-05-18T13:33:56.482Z,46.40
2019-05-18T13:36:26.584Z,46.90
2019-05-18T13:38:57.815Z,47.40
2019-05-18T13:41:28.413Z,47.10
2019-05-18T13:43:57.650Z,47.10
2019-05-18T13:46:27.162Z,47.40
2019-05-18T13:48:56.301Z,47.00
2019-05-18T13:53:54.459Z,47.40
2019-05-18T13:56:23.847Z,47.80
2019-05-18T13:58:52.903Z,48.40
2019-05-18T14:01:22.123Z,48.90
2019-05-18T14:06:20.295Z,48.20
2019-05-18T14:08:49.898Z,48.30
2019-05-18T14:11:19.006Z,49.50
2019-05-18T14:13:48.239Z,49.80
2019-05-18T14:16:17.604Z,49.40
2019-05-18T14:18:46.637Z,50.00
2019-05-18T14:21:16.386Z,49.10
2019-05-18T14:23:45.523Z,49.30
2019-05-18T14:26:14.773Z,49.40
2019-05-18T14:28:43.921Z,50.30
2019-05-18T14:31:13.003Z,50.80
2019-05-18T14:33:42.298Z,50.70
2019-05-18T14:36:11.416Z,51.00
2019-05-18T14:38:40.503Z,50.80
2019-05-18T14:41:29.155Z,50.70
2019-05-18T14:44:10.605Z,50.60
2019-05-18T14:49:58.485Z,50.30
2019-05-18T14:52:35.037Z,50.60
2019-05-18T14:55:15.217Z,50.80
2019-05-18T14:57:59.702Z,51.30
2019-05-18T15:00:34.427Z,51.30
2019-05-18T15:03:06.883Z,51.70
2019-05-18T15:05:38.771Z,50.80
2019-05-18T15:08:09.692Z,50.60
2019-05-18T15:11:11.325Z,51.10
2019-05-18T15:17:55.609Z,50.70
2019-05-18T15:20:25.701Z,51.40
2019-05-18T15:22:56.563Z,51.50
2019-05-18T15:27:59.257Z,51.00
2019-05-18T15:30:28.712Z,51.50
2019-05-18T15:32:58.297Z,51.80
2019-05-18T15:35:27.854Z,51.80
2019-05-18T15:37:58.002Z,51.90
2019-05-18T15:40:29.110Z,51.60
2019-05-18T16:07:33.763Z,51.00
2019-05-18T16:14:37.222Z,51.50
2019-05-18T16:21:22.649Z,51.70
2019-05-18T16:54:41.183Z,52.90
2019-05-18T17:04:28.599Z,53.80
2019-05-18T17:15:54.049Z,53.70
2019-05-18T18:57:40.081Z,64.50
2019-05-18T19:00:10.245Z,65.90
2019-05-18T19:02:46.196Z,66.60
2019-05-18T19:05:50.431Z,66.30
2019-05-18T19:08:22.920Z,67.00
2019-05-18T19:11:09.432Z,67.80
2019-05-18T19:13:46.305Z,68.50
2019-05-18T19:16:24.856Z,69.10
2019-05-18T19:18:58.282Z,70.00
2019-05-18T19:21:28.811Z,70.40
2019-05-18T19:23:59.091Z,71.00
2019-05-18T19:34:27.607Z,74.60
2019-05-18T19:37:01.236Z,75.20
2019-05-18T19:39:34.266Z,76.60
2019-05-18T19:42:08.337Z,78.10
2019-05-18T19:44:45.711Z,80.70
2019-05-18T19:47:22.345Z,81.20
2019-05-18T19:49:57.183Z,82.90
2019-05-18T19:52:29.214Z,85.30
2019-05-18T19:55:03.052Z,88.00
2019-05-18T19:57:33.415Z,90.50
2019-05-18T20:00:03.301Z,92.30
2019-05-18T20:02:48.446Z,93.40
2019-05-18T20:05:18.222Z,95.30
2019-05-18T20:07:48.379Z,97.10
2019-05-18T20:10:18.762Z,98.10
2019-05-18T20:12:48.748Z,99.00
2019-05-18T20:15:24.952Z,99.90
2019-05-18T20:18:31.725Z,99.90
2019-05-18T20:21:01.118Z,99.90
2019-05-18T20:23:32.007Z,99.90
2019-05-18T20:26:03.216Z,99.90
2019-05-18T20:28:32.810Z,99.90
2019-05-18T20:31:15.453Z,99.90
2019-05-18T20:33:47.222Z,99.90
2019-05-18T20:36:20.202Z,99.90
2019-05-18T20:38:52.514Z,99.90
2019-05-18T20:41:38.018Z,99.90
2019-05-18T20:44:26.954Z,99.90
2019-05-18T20:46:59.333Z,99.90
2019-05-18T20:49:29.764Z,99.90
2019-05-18T20:51:59.391Z,99.90
2019-05-18T20:54:29.528Z,99.90
2019-05-18T20:56:59.502Z,99.90
2019-05-18T20:59:29.042Z,99.90
2019-05-18T21:01:58.558Z,99.90
2019-05-18T21:04:32.844Z,99.90
2019-05-18T21:07:03.185Z,99.90
2019-05-18T21:09:33.292Z,99.90
2019-05-18T21:12:04.366Z,99.90
2019-05-18T21:14:34.070Z,99.90
2019-05-18T21:17:07.819Z,99.90
2019-05-18T21:19:40.275Z,99.90
2019-05-18T21:22:28.698Z,99.90
2019-05-18T21:25:03.422Z,99.90
2019-05-18T21:27:36.363Z,99.90
2019-05-18T21:30:08.907Z,99.90
2019-05-18T21:32:47.798Z,99.90
2019-05-18T21:35:39.817Z,99.90
2019-05-18T21:38:25.718Z,99.90
2019-05-18T21:41:07.543Z,99.90
2019-05-18T21:43:56.486Z,99.90
2019-05-18T21:46:56.173Z,99.90
2019-05-18T21:49:51.789Z,99.90
2019-05-18T21:52:49.731Z,99.90
2019-05-18T21:55:30.792Z,99.90
2019-05-18T21:58:12.220Z,99.90
2019-05-18T22:00:46.020Z,99.90
2019-05-18T22:03:19.748Z,99.90
2019-05-18T22:05:54.805Z,99.90
2019-05-18T22:08:30.723Z,99.90
2019-05-18T22:11:10.367Z,99.90
2019-05-18T22:13:48.417Z,99.90
2019-05-18T22:16:24.058Z,99.90
2019-05-18T22:19:12.225Z,99.90
2019-05-18T22:22:23.793Z,99.90
2019-05-18T22:24:52.270Z,99.90
2019-05-18T22:27:21.365Z,99.90
2019-05-18T22:29:51.018Z,99.90
2019-05-18T22:32:20.115Z,99.90
2019-05-18T22:34:49.113Z,99.90
2019-05-18T22:37:19.120Z,99.90
2019-05-18T22:39:48.105Z,99.90
2019-05-18T22:42:16.964Z,99.90
2019-05-18T22:44:45.929Z,99.90
2019-05-18T22:47:14.901Z,99.90
2019-05-18T22:49:43.740Z,99.90
2019-05-18T22:52:19.152Z,99.90
2019-05-18T22:54:48.200Z,99.90
2019-05-18T22:57:17.260Z,99.90
2019-05-18T22:59:46.197Z,99.90
2019-05-18T23:02:15.105Z,99.90
2019-05-18T23:04:44.068Z,99.90
2019-05-18T23:15:25.603Z,99.90
2019-05-18T23:25:39.810Z,99.90
2019-05-18T23:28:17.245Z,99.90
2019-05-18T23:30:47.302Z,99.90
2019-05-18T23:33:16.770Z,99.90
2019-05-18T23:35:50.275Z,99.90
2019-05-18T23:38:19.254Z,99.90
2019-05-18T23:40:52.766Z,99.90
2019-05-18T23:43:46.498Z,99.90
2019-05-18T23:46:21.619Z,99.90
2019-05-18T23:49:10.408Z,99.90
2019-05-18T23:51:48.202Z,99.90
